Time;durP1;ratioP1;P1;durP2;ratioP2;P2;SDS_P1;SDS_P2;PMS_P1;PMS_P2;Temp;Humidity;BMP_temperature;BMP_pressure;BME280_temperature;BME280_humidity;BME280_pressure;Samples;Min_cycle;Max_cycle;Signal;HPM_P1;HPM_P2
2022/10/28 03:00:48;;;;;;;0.83;0.83;;;17.60;76.60;;;;;;6118751;22;20387;-76
2022/10/28 03:03:15;;;;;;;0.93;0.93;;;17.60;76.30;;;;;;5076054;28;20843;-77
2022/10/28 03:05:42;;;;;;;0.83;0.83;;;17.50;76.40;;;;;;5076589;28;20450;-77
2022/10/28 03:08:08;;;;;;;0.90;0.90;;;17.40;76.90;;;;;;5076026;28;20948;-77
2022/10/28 03:10:35;;;;;;;0.80;0.77;;;17.30;76.80;;;;;;5076525;28;20460;-77
2022/10/28 03:13:02;;;;;;;1.23;0.80;;;17.30;77.40;;;;;;5075947;28;20453;-77
2022/10/28 03:15:28;;;;;;;1.10;1.00;;;17.40;77.30;;;;;;5077943;28;20792;-77
2022/10/28 03:17:56;;;;;;;1.50;1.40;;;17.40;77.00;;;;;;5076739;28;20452;-77
2022/10/28 03:20:23;;;;;;;1.23;0.93;;;17.40;77.00;;;;;;5076546;28;20456;-77
2022/10/28 03:22:50;;;;;;;1.00;0.90;;;17.30;76.80;;;;;;5076906;28;20441;-77
2022/10/28 03:25:16;;;;;;;0.83;0.83;;;17.40;76.80;;;;;;5075075;28;20454;-77
2022/10/28 03:27:43;;;;;;;1.37;1.00;;;17.40;76.10;;;;;;5074597;28;20458;-77
2022/10/28 03:30:11;;;;;;;1.03;1.00;;;17.40;76.30;;;;;;5074326;28;20449;-77
2022/10/28 03:32:40;;;;;;;0.90;0.90;;;17.40;76.50;;;;;;5074656;28;20492;-77
2022/10/28 03:35:09;;;;;;;1.20;0.90;;;17.60;76.40;;;;;;5075039;28;20454;-77
2022/10/28 03:37:36;;;;;;;0.80;0.73;;;17.60;76.00;;;;;;5074321;28;20449;-77
2022/10/28 03:40:06;;;;;;;0.80;0.80;;;17.60;76.10;;;;;;5073969;28;20462;-77
2022/10/28 03:42:33;;;;;;;0.80;0.80;;;17.60;75.90;;;;;;5073979;28;20552;-77
2022/10/28 03:45:00;;;;;;;0.90;0.90;;;17.60;75.80;;;;;;5074404;28;20467;-77
2022/10/28 03:47:27;;;;;;;0.70;0.70;;;17.70;75.30;;;;;;5073925;28;20948;-77
2022/10/28 03:49:54;;;;;;;1.10;0.80;;;17.80;75.20;;;;;;5074148;28;20490;-77
2022/10/28 03:52:22;;;;;;;0.80;0.70;;;17.80;75.30;;;;;;5075260;28;20494;-77
2022/10/28 03:54:48;;;;;;;0.90;0.80;;;17.80;75.00;;;;;;5076031;28;20452;-77
2022/10/28 03:57:15;;;;;;;1.30;1.03;;;17.80;75.00;;;;;;5075975;28;20446;-77
2022/10/28 03:59:42;;;;;;;1.27;0.80;;;17.80;74.80;;;;;;5075376;28;20442;-77
2022/10/28 04:02:08;;;;;;;1.10;0.80;;;17.80;75.70;;;;;;5073210;28;20481;-77
2022/10/28 04:04:35;;;;;;;0.80;0.80;;;17.80;75.50;;;;;;5073408;28;20445;-77
2022/10/28 04:07:02;;;;;;;0.80;0.80;;;17.90;75.40;;;;;;5073503;28;20450;-77
2022/10/28 04:09:30;;;;;;;0.80;0.70;;;18.00;75.40;;;;;;5074078;28;21058;-77
2022/10/28 04:11:57;;;;;;;0.77;0.77;;;18.00;75.20;;;;;;5073350;28;20489;-76
2022/10/28 04:14:23;;;;;;;0.90;0.90;;;18.00;75.30;;;;;;5076477;28;20449;-77
2022/10/28 04:16:50;;;;;;;0.90;0.90;;;18.00;75.40;;;;;;5077159;28;20458;-75
2022/10/28 04:19:17;;;;;;;1.47;0.80;;;18.10;75.30;;;;;;5076743;28;20445;-75
2022/10/28 04:21:43;;;;;;;1.00;0.90;;;18.10;75.20;;;;;;5076711;28;20466;-74
2022/10/28 04:24:10;;;;;;;0.80;0.80;;;18.00;75.30;;;;;;5076638;28;20446;-75
2022/10/28 04:26:38;;;;;;;1.37;1.10;;;18.00;75.30;;;;;;5076607;28;20457;-75
2022/10/28 04:29:05;;;;;;;0.90;0.90;;;17.90;75.40;;;;;;5076644;28;20449;-74
2022/10/28 04:31:32;;;;;;;0.87;0.83;;;17.90;75.60;;;;;;5076396;28;20481;-74
2022/10/28 04:33:58;;;;;;;0.90;0.70;;;17.90;75.80;;;;;;5076444;28;20932;-74
2022/10/28 04:36:25;;;;;;;0.90;0.90;;;17.90;75.80;;;;;;5076492;28;20450;-75
2022/10/28 04:38:52;;;;;;;0.93;0.90;;;17.90;75.60;;;;;;5076396;28;20804;-74
2022/10/28 04:41:18;;;;;;;1.00;0.90;;;17.80;75.90;;;;;;5076217;28;20480;-74
2022/10/28 04:43:47;;;;;;;0.97;0.87;;;17.80;75.80;;;;;;5076251;28;20454;-74
2022/10/28 04:46:13;;;;;;;0.80;0.80;;;17.90;75.70;;;;;;5076857;28;20442;-75
2022/10/28 04:48:40;;;;;;;1.00;0.80;;;17.90;76.10;;;;;;5076815;28;20472;-74
2022/10/28 04:51:07;;;;;;;0.90;0.90;;;18.00;75.80;;;;;;5076004;28;20477;-75
2022/10/28 04:53:34;;;;;;;1.00;0.90;;;18.10;75.90;;;;;;5076369;28;20449;-74
2022/10/28 04:56:00;;;;;;;0.90;0.83;;;18.10;76.30;;;;;;5076404;28;20434;-74
2022/10/28 04:58:27;;;;;;;1.70;1.00;;;18.10;76.60;;;;;;5076102;28;20458;-74
2022/10/28 05:00:55;;;;;;;1.37;0.93;;;18.10;76.60;;;;;;5075808;28;20478;-73
2022/10/28 05:03:22;;;;;;;0.80;0.80;;;18.20;76.70;;;;;;5076919;28;20430;-74
2022/10/28 05:05:49;;;;;;;1.00;0.90;;;18.20;76.70;;;;;;5075915;28;20458;-75
2022/10/28 05:08:15;;;;;;;1.20;0.90;;;18.20;76.80;;;;;;5076248;28;20446;-74
2022/10/28 05:10:42;;;;;;;0.83;0.80;;;18.10;76.60;;;;;;5075741;28;20449;-74
2022/10/28 05:13:09;;;;;;;0.80;0.80;;;18.10;76.50;;;;;;5076885;28;20481;-74
2022/10/28 05:15:35;;;;;;;0.80;0.80;;;18.00;76.30;;;;;;5075829;28;20449;-75
2022/10/28 05:18:03;;;;;;;1.10;0.90;;;18.00;75.70;;;;;;5075955;28;20449;-74
2022/10/28 05:20:30;;;;;;;0.83;0.83;;;18.00;75.10;;;;;;5075731;28;20503;-74
2022/10/28 05:22:57;;;;;;;0.90;0.90;;;17.90;74.40;;;;;;5075828;28;20446;-74
2022/10/28 05:25:24;;;;;;;1.03;0.90;;;17.90;74.50;;;;;;5075111;28;20454;-75
2022/10/28 05:27:51;;;;;;;0.87;0.87;;;17.80;74.50;;;;;;5075741;28;20453;-74
2022/10/28 05:30:19;;;;;;;0.90;0.70;;;17.70;74.00;;;;;;5075401;28;20430;-75
2022/10/28 05:32:46;;;;;;;0.70;0.70;;;17.60;74.80;;;;;;5075289;28;20485;-74
2022/10/28 05:35:14;;;;;;;0.70;0.70;;;17.60;74.00;;;;;;5075887;28;20957;-74
2022/10/28 05:37:40;;;;;;;0.70;0.70;;;17.60;74.50;;;;;;5075741;28;20442;-75
2022/10/28 05:40:08;;;;;;;0.83;0.80;;;17.70;74.00;;;;;;5075256;28;20817;-75
2022/10/28 05:42:40;;;;;;;0.90;0.90;;;17.70;73.70;;;;;;5075347;28;20478;-74
2022/10/28 05:45:08;;;;;;;0.70;0.70;;;17.70;73.60;;;;;;5075400;28;20429;-75
2022/10/28 05:47:34;;;;;;;1.00;0.90;;;17.80;73.70;;;;;;5075257;28;20449;-75
2022/10/28 05:50:01;;;;;;;0.70;0.70;;;17.90;73.60;;;;;;5074851;28;20457;-74
2022/10/28 05:52:29;;;;;;;0.80;0.80;;;17.90;73.80;;;;;;5074787;28;20520;-75
2022/10/28 05:54:56;;;;;;;1.30;1.03;;;17.90;73.80;;;;;;5075177;28;20442;-74
2022/10/28 05:57:22;;;;;;;0.80;0.80;;;17.90;74.00;;;;;;5075286;28;20452;-74
2022/10/28 05:59:49;;;;;;;0.87;0.87;;;17.90;74.10;;;;;;5075192;28;20453;-74
2022/10/28 06:02:16;;;;;;;0.70;0.70;;;17.90;73.20;;;;;;5074785;28;20999;-74
2022/10/28 06:04:43;;;;;;;0.70;0.70;;;17.90;73.50;;;;;;5076666;28;20454;-76
2022/10/28 06:07:09;;;;;;;0.80;0.80;;;17.80;73.20;;;;;;5076445;28;20495;-77
2022/10/28 06:09:37;;;;;;;0.80;0.80;;;17.80;73.20;;;;;;5075826;28;20936;-76
2022/10/28 06:12:07;;;;;;;0.90;0.80;;;17.90;73.30;;;;;;5075482;28;20485;-76
2022/10/28 06:14:33;;;;;;;0.80;0.80;;;17.80;73.90;;;;;;5075576;28;20815;-76
2022/10/28 06:17:00;;;;;;;0.90;0.90;;;17.80;74.20;;;;;;5076186;28;20452;-76
2022/10/28 06:19:27;;;;;;;0.80;0.80;;;17.80;74.10;;;;;;5075085;28;20449;-78
2022/10/28 06:21:54;;;;;;;0.70;0.70;;;17.80;73.10;;;;;;5074989;28;20464;-77
2022/10/28 06:24:20;;;;;;;0.80;0.80;;;17.70;73.30;;;;;;5078658;28;20446;-78
2022/10/28 06:26:48;;;;;;;1.23;0.90;;;17.70;73.50;;;;;;5075171;28;20450;-77
2022/10/28 06:29:15;;;;;;;0.70;0.70;;;17.70;73.70;;;;;;5074485;28;20822;-78
2022/10/28 06:31:42;;;;;;;1.00;0.90;;;17.70;73.80;;;;;;5074484;28;20465;-78
2022/10/28 06:34:09;;;;;;;0.90;0.90;;;17.70;74.10;;;;;;5074571;28;20453;-78
2022/10/28 06:36:36;;;;;;;0.90;0.80;;;17.70;74.30;;;;;;5073513;28;20445;-78
2022/10/28 06:39:03;;;;;;;1.10;1.00;;;17.70;74.30;;;;;;5074587;28;20457;-78
2022/10/28 06:41:30;;;;;;;1.07;0.90;;;17.60;73.90;;;;;;5075014;28;20473;-78
2022/10/28 06:43:58;;;;;;;1.33;1.23;;;17.60;73.90;;;;;;5075361;28;20446;-77
2022/10/28 06:46:25;;;;;;;0.83;0.83;;;17.60;73.50;;;;;;5074743;28;20948;-77
2022/10/28 06:48:53;;;;;;;1.10;1.00;;;17.60;74.00;;;;;;5074787;28;20456;-77
2022/10/28 06:51:20;;;;;;;1.00;0.90;;;17.70;73.80;;;;;;5074579;28;20496;-78
2022/10/28 06:53:49;;;;;;;1.60;0.80;;;17.80;73.10;;;;;;5075104;28;20477;-75
2022/10/28 06:56:15;;;;;;;0.83;0.77;;;17.80;72.90;;;;;;5073880;28;20540;-75
2022/10/28 06:58:42;;;;;;;0.93;0.77;;;17.90;72.80;;;;;;5074289;28;20441;-75
2022/10/28 07:01:10;;;;;;;0.93;0.80;;;18.10;72.50;;;;;;5073725;28;20897;-75
2022/10/28 07:03:37;;;;;;;1.13;0.87;;;18.20;72.40;;;;;;5074040;28;20832;-75
2022/10/28 07:06:04;;;;;;;0.83;0.83;;;18.20;72.70;;;;;;5073987;28;20461;-76
2022/10/28 07:08:31;;;;;;;0.80;0.77;;;18.10;73.40;;;;;;5074079;28;20446;-75
2022/10/28 07:11:00;;;;;;;0.73;0.73;;;18.20;72.40;;;;;;5073872;28;20936;-75
2022/10/28 07:13:28;;;;;;;0.80;0.80;;;18.20;72.50;;;;;;5073551;28;20477;-76
2022/10/28 07:15:56;;;;;;;0.80;0.80;;;18.20;73.20;;;;;;5073691;28;20453;-75
2022/10/28 07:18:26;;;;;;;0.90;0.80;;;18.30;73.00;;;;;;5074920;28;20457;-75
2022/10/28 07:20:53;;;;;;;1.10;0.70;;;18.30;73.60;;;;;;5073624;28;20484;-75
2022/10/28 07:23:20;;;;;;;0.80;0.80;;;18.30;72.90;;;;;;5074835;28;20438;-79
2022/10/28 07:25:52;;;;;;;0.97;0.80;;;18.30;71.70;;;;;;5074121;28;20445;-78
2022/10/28 07:28:19;;;;;;;0.83;0.83;;;18.30;70.40;;;;;;5076165;28;20924;-78
2022/10/28 07:30:46;;;;;;;0.70;0.70;;;18.20;69.50;;;;;;5076072;28;20478;-78
2022/10/28 07:33:12;;;;;;;0.97;0.87;;;18.30;69.90;;;;;;5076841;28;20488;-78
2022/10/28 07:35:41;;;;;;;0.87;0.70;;;18.30;69.80;;;;;;5073958;28;20456;-77
2022/10/28 07:38:08;;;;;;;0.80;0.77;;;18.40;69.70;;;;;;5073662;28;20450;-78
2022/10/28 07:40:35;;;;;;;1.30;0.90;;;18.40;69.40;;;;;;5075406;28;20453;-77
2022/10/28 07:43:01;;;;;;;0.80;0.73;;;18.40;69.00;;;;;;5074028;28;20442;-78
2022/10/28 07:45:28;;;;;;;0.80;0.70;;;18.50;70.50;;;;;;5074097;28;20457;-79
2022/10/28 07:47:55;;;;;;;0.70;0.70;;;18.70;70.20;;;;;;5074582;28;20465;-77
2022/10/28 07:50:21;;;;;;;0.80;0.80;;;18.80;70.60;;;;;;5078002;28;20445;-78
2022/10/28 07:52:49;;;;;;;0.80;0.80;;;18.90;71.10;;;;;;5081049;28;20481;-79
2022/10/28 07:55:16;;;;;;;1.83;0.80;;;19.00;71.60;;;;;;5078880;28;20446;-78
2022/10/28 07:57:43;;;;;;;0.97;0.70;;;19.10;71.60;;;;;;5078142;28;20449;-78
2022/10/28 08:00:10;;;;;;;0.90;0.90;;;19.10;71.00;;;;;;5079056;28;20446;-79
2022/10/28 08:02:38;;;;;;;0.70;0.70;;;19.10;69.90;;;;;;5080324;28;20561;-78
2022/10/28 08:05:05;;;;;;;0.90;0.70;;;19.10;68.60;;;;;;5079464;28;20441;-79
2022/10/28 08:07:32;;;;;;;0.60;0.60;;;19.00;67.50;;;;;;5080613;28;20446;-79
2022/10/28 08:10:00;;;;;;;0.70;0.63;;;18.80;67.70;;;;;;5081120;28;20824;-78
2022/10/28 08:12:27;;;;;;;2.00;0.70;;;18.90;68.90;;;;;;5079820;28;20476;-78
2022/10/28 08:14:55;;;;;;;0.77;0.77;;;19.00;68.40;;;;;;5081178;28;20480;-78
2022/10/28 08:17:21;;;;;;;1.00;0.80;;;19.00;66.10;;;;;;5079916;28;20449;-78
2022/10/28 08:19:48;;;;;;;0.60;0.60;;;19.00;67.30;;;;;;5079343;28;20460;-78
2022/10/28 08:22:15;;;;;;;0.70;0.70;;;19.10;67.00;;;;;;5080524;28;21094;-78
2022/10/28 08:24:41;;;;;;;0.80;0.80;;;19.30;66.70;;;;;;5082268;28;20472;-78
2022/10/28 08:27:09;;;;;;;0.80;0.63;;;19.30;66.50;;;;;;5079178;28;20445;-78
2022/10/28 08:29:36;;;;;;;0.70;0.63;;;19.40;67.10;;;;;;5086086;28;20846;-79
2022/10/28 08:32:03;;;;;;;0.60;0.60;;;19.40;66.40;;;;;;5084762;28;20477;-77
2022/10/28 08:34:30;;;;;;;0.70;0.70;;;19.50;65.00;;;;;;5082551;28;20489;-78
2022/10/28 08:36:57;;;;;;;0.70;0.70;;;19.50;65.50;;;;;;5078976;28;20970;-78
2022/10/28 08:39:24;;;;;;;0.70;0.70;;;19.40;66.30;;;;;;5080035;28;20839;-77
2022/10/28 08:41:56;;;;;;;0.87;0.80;;;19.40;65.10;;;;;;5084080;28;20461;-78
2022/10/28 08:45:00;;;;;;;1.33;0.67;;;19.50;65.80;;;;;;5079733;28;20429;-78
2022/10/28 08:47:36;;;;;;;0.80;0.80;;;19.60;65.10;;;;;;5079007;28;20434;-78
2022/10/28 08:50:10;;;;;;;0.70;0.70;;;19.60;64.10;;;;;;5077438;28;20438;-78
2022/10/28 08:52:43;;;;;;;0.80;0.80;;;19.70;64.60;;;;;;5081639;28;20849;-78
2022/10/28 08:55:15;;;;;;;0.90;0.80;;;19.70;64.40;;;;;;5083880;28;20460;-79
2022/10/28 08:57:46;;;;;;;0.80;0.70;;;19.80;64.00;;;;;;5082164;28;20426;-78
2022/10/28 09:00:21;;;;;;;0.70;0.70;;;20.00;63.50;;;;;;5075857;28;20438;-78
2022/10/28 09:02:56;;;;;;;1.30;0.80;;;20.10;62.90;;;;;;5078009;28;20488;-78
2022/10/28 09:05:24;;;;;;;0.70;0.70;;;20.20;62.30;;;;;;5077892;28;20484;-78
2022/10/28 09:07:51;;;;;;;0.70;0.70;;;20.20;62.20;;;;;;5079333;28;20459;-77
2022/10/28 09:10:48;;;;;;;0.80;0.80;;;20.40;61.90;;;;;;5077113;28;20503;-78
2022/10/28 09:13:23;;;;;;;0.63;0.63;;;20.40;61.90;;;;;;5079550;28;20489;-78
2022/10/28 09:15:58;;;;;;;0.70;0.67;;;20.50;62.10;;;;;;5079368;28;20437;-78
2022/10/28 09:18:41;;;;;;;0.80;0.77;;;20.70;62.30;;;;;;5076580;28;20437;-78
2022/10/28 09:21:18;;;;;;;0.70;0.60;;;20.90;61.90;;;;;;5078418;28;20824;-78
2022/10/28 09:23:49;;;;;;;0.70;0.70;;;21.00;62.00;;;;;;5076918;28;20425;-78
2022/10/28 09:26:23;;;;;;;0.80;0.60;;;21.00;61.30;;;;;;5077087;28;20437;-76
2022/10/28 09:29:01;;;;;;;0.70;0.70;;;21.00;61.50;;;;;;5076082;28;20425;-76
2022/10/28 09:31:34;;;;;;;0.70;0.60;;;21.00;62.00;;;;;;5076051;28;20548;-76
2022/10/28 09:34:17;;;;;;;1.10;0.70;;;21.00;60.80;;;;;;5076168;28;21070;-76
2022/10/28 09:36:48;;;;;;;0.90;0.70;;;21.00;61.00;;;;;;5077531;28;20441;-76
2022/10/28 09:39:18;;;;;;;0.70;0.70;;;21.00;61.90;;;;;;5077994;28;20438;-76
2022/10/28 09:41:47;;;;;;;0.70;0.70;;;21.10;61.60;;;;;;5076272;28;21053;-75
2022/10/28 09:44:20;;;;;;;0.70;0.70;;;21.20;61.40;;;;;;5076066;28;20983;-76
2022/10/28 09:46:53;;;;;;;0.80;0.70;;;21.30;61.10;;;;;;5076520;28;20430;-75
2022/10/28 09:49:25;;;;;;;0.70;0.70;;;21.60;60.40;;;;;;5076025;28;21017;-74
2022/10/28 09:51:57;;;;;;;1.33;0.87;;;21.80;60.60;;;;;;5075896;28;20523;-74
2022/10/28 09:54:33;;;;;;;0.60;0.60;;;21.90;59.30;;;;;;5075755;28;20473;-76
2022/10/28 09:57:00;;;;;;;0.60;0.60;;;22.10;59.90;;;;;;5075823;28;20429;-76
2022/10/28 09:59:27;;;;;;;0.60;0.60;;;22.30;58.70;;;;;;5076761;28;20445;-76
2022/10/28 10:01:55;;;;;;;0.70;0.70;;;22.40;58.50;;;;;;5075489;28;21023;-76
2022/10/28 10:04:24;;;;;;;0.90;0.83;;;22.40;56.90;;;;;;5075475;28;20450;-75
2022/10/28 10:06:56;;;;;;;0.70;0.70;;;22.40;59.30;;;;;;5076339;28;20495;-74
2022/10/28 10:09:25;;;;;;;0.60;0.60;;;22.40;58.20;;;;;;5081761;28;20780;-76
2022/10/28 10:11:55;;;;;;;0.80;0.80;;;22.50;57.80;;;;;;5082524;28;20469;-77
2022/10/28 10:14:26;;;;;;;0.70;0.70;;;22.40;58.00;;;;;;5083024;28;20488;-77
2022/10/28 10:16:57;;;;;;;0.70;0.70;;;22.60;57.80;;;;;;5082981;28;20484;-76
2022/10/28 10:19:25;;;;;;;0.70;0.70;;;22.50;57.20;;;;;;5083473;28;20427;-77
2022/10/28 10:21:54;;;;;;;0.70;0.70;;;22.50;58.30;;;;;;5082869;28;20477;-76
2022/10/28 10:24:32;;;;;;;0.80;0.80;;;22.60;58.60;;;;;;5083132;28;20457;-77
2022/10/28 10:27:01;;;;;;;0.93;0.60;;;22.70;57.60;;;;;;5083681;28;20444;-78
2022/10/28 10:29:30;;;;;;;0.90;0.70;;;22.70;58.00;;;;;;5084844;28;20929;-78
2022/10/28 10:32:15;;;;;;;0.70;0.70;;;22.60;58.00;;;;;;5085181;28;20498;-78
2022/10/28 10:34:45;;;;;;;1.03;0.73;;;22.40;58.60;;;;;;5084121;28;20812;-77
2022/10/28 10:37:19;;;;;;;0.73;0.70;;;22.40;58.00;;;;;;5082813;28;20430;-76
2022/10/28 10:39:56;;;;;;;0.80;0.70;;;22.40;59.20;;;;;;5081610;28;20784;-77
2022/10/28 10:42:24;;;;;;;0.87;0.80;;;22.40;58.20;;;;;;5081785;28;20476;-76
2022/10/28 10:44:59;;;;;;;0.63;0.63;;;22.40;58.00;;;;;;5076727;28;20532;-77
2022/10/28 10:47:27;;;;;;;1.17;0.83;;;22.50;58.40;;;;;;5074364;28;20936;-76
2022/10/28 10:50:20;;;;;;;0.90;0.90;;;22.50;58.70;;;;;;5074804;28;20945;-77
2022/10/28 10:52:52;;;;;;;0.70;0.70;;;22.50;58.40;;;;;;5074583;28;20501;-76
2022/10/28 10:55:29;;;;;;;0.70;0.70;;;22.50;58.30;;;;;;5074927;28;20485;-77
2022/10/28 10:57:56;;;;;;;0.70;0.70;;;22.50;58.30;;;;;;5074648;28;20430;-77
2022/10/28 11:00:28;;;;;;;1.00;0.70;;;22.70;57.20;;;;;;5075899;28;20450;-76
2022/10/28 11:02:57;;;;;;;1.00;0.60;;;22.80;57.80;;;;;;5074583;28;20457;-76
2022/10/28 11:05:24;;;;;;;1.00;0.87;;;22.90;57.20;;;;;;5074881;28;20446;-77
2022/10/28 11:07:52;;;;;;;0.67;0.67;;;23.00;57.50;;;;;;5074573;28;20453;-76
2022/10/28 11:10:22;;;;;;;0.80;0.60;;;23.00;57.30;;;;;;5074676;28;20453;-78
2022/10/28 11:12:52;;;;;;;0.70;0.70;;;23.10;56.90;;;;;;5074645;28;20473;-77
2022/10/28 11:15:25;;;;;;;0.90;0.80;;;23.10;57.40;;;;;;5075048;28;20469;-76
2022/10/28 11:17:59;;;;;;;0.80;0.80;;;23.20;57.40;;;;;;5074540;28;20951;-77
2022/10/28 11:20:29;;;;;;;0.90;0.77;;;23.30;57.70;;;;;;5075552;28;20430;-77
2022/10/28 11:23:11;;;;;;;0.97;0.80;;;23.30;58.20;;;;;;5074135;28;20450;-77
2022/10/28 11:25:40;;;;;;;0.90;0.80;;;23.30;58.00;;;;;;5074436;28;20905;-77
2022/10/28 11:28:32;;;;;;;0.60;0.60;;;23.20;58.60;;;;;;5074608;28;20445;-77
2022/10/28 11:31:10;;;;;;;0.80;0.80;;;23.10;57.60;;;;;;5074990;28;20454;-78
2022/10/28 11:33:47;;;;;;;0.70;0.70;;;23.00;58.00;;;;;;5075648;28;20469;-77
2022/10/28 11:36:21;;;;;;;0.90;0.90;;;23.10;58.80;;;;;;5073992;28;20437;-76
2022/10/28 11:39:11;;;;;;;0.70;0.70;;;23.20;57.60;;;;;;5074143;28;20434;-76
2022/10/28 11:41:49;;;;;;;0.77;0.77;;;23.20;57.80;;;;;;5074978;28;20468;-77
2022/10/28 11:44:31;;;;;;;0.97;0.70;;;23.30;58.50;;;;;;5078213;28;20430;-76
2022/10/28 11:47:11;;;;;;;0.80;0.80;;;23.20;59.80;;;;;;5078949;28;20438;-76
2022/10/28 11:50:01;;;;;;;0.70;0.70;;;23.40;59.70;;;;;;5075050;28;20437;-76
2022/10/28 11:52:41;;;;;;;1.00;0.90;;;23.50;58.90;;;;;;5073420;28;20981;-76
2022/10/28 11:55:17;;;;;;;0.90;0.90;;;23.60;58.00;;;;;;5073341;28;20466;-78
2022/10/28 11:57:53;;;;;;;0.80;0.60;;;23.70;58.60;;;;;;5074602;28;20437;-77
2022/10/28 12:00:40;;;;;;;0.70;0.70;;;23.60;58.60;;;;;;5076911;28;20425;-76
2022/10/28 12:03:43;;;;;;;1.00;0.90;;;23.60;59.90;;;;;;5074913;28;20437;-76
2022/10/28 12:06:17;;;;;;;0.63;0.63;;;23.70;60.00;;;;;;5074692;28;20510;-75
2022/10/28 12:09:03;;;;;;;0.70;0.70;;;23.60;59.40;;;;;;5074724;28;20429;-76
2022/10/28 12:11:43;;;;;;;0.90;0.90;;;23.60;59.60;;;;;;5074921;28;20824;-78
2022/10/28 12:14:21;;;;;;;0.80;0.80;;;23.60;60.20;;;;;;5074782;28;20477;-77
2022/10/28 12:16:54;;;;;;;0.70;0.70;;;23.70;60.80;;;;;;5082051;28;20448;-77
2022/10/28 12:19:27;;;;;;;0.70;0.70;;;23.80;59.90;;;;;;5083771;28;20417;-77
2022/10/28 12:22:03;;;;;;;0.77;0.73;;;24.00;59.70;;;;;;5083665;28;20476;-77
2022/10/28 12:24:33;;;;;;;0.73;0.73;;;24.30;58.00;;;;;;5083487;28;20437;-78
2022/10/28 12:27:06;;;;;;;0.80;0.70;;;24.70;55.40;;;;;;5082544;28;20414;-78
2022/10/28 12:29:39;;;;;;;0.80;0.80;;;24.80;55.40;;;;;;5081500;28;20444;-77
2022/10/28 12:32:09;;;;;;;0.70;0.70;;;25.20;55.20;;;;;;5083072;28;20474;-77
2022/10/28 12:34:41;;;;;;;0.80;0.80;;;25.50;53.60;;;;;;5084303;28;20474;-78
2022/10/28 12:37:13;;;;;;;0.70;0.70;;;25.90;53.80;;;;;;5087138;28;20517;-77
2022/10/28 12:39:46;;;;;;;0.90;0.90;;;26.30;53.10;;;;;;5086917;28;20434;-77
2022/10/28 12:42:20;;;;;;;1.83;0.80;;;26.90;52.70;;;;;;5086529;28;20478;-77
2022/10/28 12:44:49;;;;;;;0.73;0.60;;;27.30;51.50;;;;;;5085012;28;20457;-78
2022/10/28 12:47:22;;;;;;;0.80;0.80;;;27.30;50.60;;;;;;5086033;28;20521;-78
2022/10/28 12:50:00;;;;;;;0.83;0.83;;;27.00;51.30;;;;;;5085421;28;20430;-77
2022/10/28 12:52:38;;;;;;;0.77;0.70;;;27.10;50.70;;;;;;5085127;28;20532;-77
2022/10/28 12:55:18;;;;;;;0.80;0.80;;;27.30;50.90;;;;;;5085830;28;20472;-77
2022/10/28 12:57:52;;;;;;;0.80;0.80;;;27.70;50.20;;;;;;5085935;28;20426;-76
2022/10/28 13:00:23;;;;;;;2.60;0.87;;;28.10;49.70;;;;;;5082048;28;20434;-76
2022/10/28 13:02:58;;;;;;;0.70;0.70;;;28.70;48.60;;;;;;5078681;28;20474;-77
2022/10/28 13:05:31;;;;;;;1.00;0.70;;;29.30;47.20;;;;;;5084759;28;20426;-77
2022/10/28 13:08:26;;;;;;;0.80;0.80;;;29.20;47.60;;;;;;5085942;28;20923;-77
2022/10/28 13:10:58;;;;;;;0.80;0.70;;;29.00;47.40;;;;;;5086842;28;20473;-76
2022/10/28 13:13:39;;;;;;;1.10;0.70;;;30.50;45.70;;;;;;5086433;28;20450;-77
2022/10/28 13:16:17;;;;;;;1.20;0.70;;;32.50;42.60;;;;;;5084776;28;20472;-77
2022/10/28 13:19:01;;;;;;;0.70;0.70;;;34.50;39.00;;;;;;5085408;28;20521;-77
2022/10/28 13:21:41;;;;;;;1.20;0.83;;;35.90;38.80;;;;;;5086464;28;20492;-77
2022/10/28 13:24:19;;;;;;;0.80;0.73;;;37.10;37.60;;;;;;5089181;28;20517;-77
2022/10/28 13:26:48;;;;;;;0.80;0.70;;;37.60;36.50;;;;;;5089012;28;20434;-77
2022/10/28 13:29:23;;;;;;;0.70;0.70;;;38.00;34.70;;;;;;5089886;28;20445;-78
2022/10/28 13:31:51;;;;;;;1.00;0.80;;;38.10;34.00;;;;;;5090270;28;20508;-78
2022/10/28 13:34:21;;;;;;;0.80;0.80;;;38.10;34.90;;;;;;5090366;28;20488;-77
2022/10/28 13:36:56;;;;;;;0.70;0.70;;;38.50;34.70;;;;;;5088790;28;20541;-77
2022/10/28 13:39:41;;;;;;;0.93;0.90;;;36.50;35.40;;;;;;5089831;28;20904;-77
2022/10/28 13:42:31;;;;;;;0.60;0.60;;;34.90;37.90;;;;;;5090400;28;20473;-77
2022/10/28 13:44:59;;;;;;;0.80;0.80;;;33.40;40.20;;;;;;5090551;28;20887;-76
2022/10/28 13:47:29;;;;;;;0.80;0.80;;;32.30;41.50;;;;;;5088455;28;20480;-78
2022/10/28 13:50:28;;;;;;;0.70;0.70;;;31.10;43.50;;;;;;5088929;28;20484;-78
2022/10/28 13:53:41;;;;;;;0.83;0.80;;;30.30;45.10;;;;;;5087643;28;20430;-77
2022/10/28 13:56:47;;;;;;;1.20;0.87;;;29.60;45.90;;;;;;5077184;28;20547;-77
2022/10/28 13:59:30;;;;;;;1.00;0.90;;;28.90;48.20;;;;;;5028671;28;20454;-77
2022/10/28 14:02:01;;;;;;;1.03;0.97;;;28.60;48.30;;;;;;5076400;28;20484;-77
2022/10/28 14:04:32;;;;;;;1.10;0.90;;;28.40;49.10;;;;;;5076356;28;20940;-78
2022/10/28 14:07:27;;;;;;;0.73;0.73;;;29.00;47.80;;;;;;5077530;28;20809;-79
2022/10/28 14:09:58;;;;;;;0.80;0.80;;;30.50;45.90;;;;;;5072215;28;20453;-77
2022/10/28 14:12:29;;;;;;;1.07;0.80;;;32.10;43.30;;;;;;5077746;28;20470;-77
2022/10/28 14:15:00;;;;;;;0.80;0.80;;;32.80;42.80;;;;;;5077778;28;20487;-77
2022/10/28 14:17:33;;;;;;;0.90;0.80;;;32.60;43.50;;;;;;5076620;28;20426;-76
2022/10/28 14:20:01;;;;;;;1.30;0.90;;;31.60;42.80;;;;;;5075753;28;20456;-76
2022/10/28 14:22:30;;;;;;;0.70;0.70;;;31.30;44.40;;;;;;5076620;28;20470;-76
2022/10/28 14:24:57;;;;;;;1.00;1.00;;;31.60;45.10;;;;;;5075801;28;20934;-76
2022/10/28 14:27:30;;;;;;;1.07;0.80;;;31.80;44.70;;;;;;5075983;28;20469;-76
2022/10/28 14:30:21;;;;;;;1.70;0.70;;;31.40;43.40;;;;;;5076778;28;20533;-77
2022/10/28 14:33:03;;;;;;;0.70;0.70;;;30.80;44.60;;;;;;5076257;28;20474;-77
2022/10/28 14:35:38;;;;;;;0.70;0.70;;;30.40;45.60;;;;;;5076354;28;20472;-77
2022/10/28 14:38:46;;;;;;;0.70;0.70;;;29.70;47.50;;;;;;5076676;28;20475;-76
2022/10/28 14:41:36;;;;;;;0.70;0.70;;;29.20;47.30;;;;;;5075584;28;20477;-78
2022/10/28 14:44:16;;;;;;;0.70;0.70;;;28.70;49.00;;;;;;5075206;28;20801;-77
2022/10/28 14:46:59;;;;;;;1.30;0.90;;;28.00;50.00;;;;;;5075754;28;20442;-77
2022/10/28 14:49:28;;;;;;;1.00;0.90;;;27.70;51.40;;;;;;5075232;28;20426;-77
2022/10/28 14:51:57;;;;;;;1.00;0.90;;;27.40;51.60;;;;;;5075630;28;20461;-77
2022/10/28 14:54:36;;;;;;;0.70;0.70;;;27.10;51.80;;;;;;5077838;28;20454;-77
2022/10/28 14:57:04;;;;;;;1.20;0.70;;;26.90;52.60;;;;;;5076295;28;20434;-77
2022/10/28 14:59:36;;;;;;;1.10;1.00;;;26.70;54.90;;;;;;5074772;28;20441;-78
2022/10/28 15:02:11;;;;;;;1.00;0.80;;;26.60;57.20;;;;;;5075311;28;21004;-77
2022/10/28 15:04:40;;;;;;;0.93;0.87;;;26.60;57.60;;;;;;5076311;28;20796;-77
2022/10/28 15:07:12;;;;;;;0.70;0.70;;;26.50;58.20;;;;;;5076578;28;20465;-76
2022/10/28 15:09:39;;;;;;;0.80;0.80;;;26.30;58.00;;;;;;5075735;28;20909;-77
2022/10/28 15:12:08;;;;;;;0.90;0.80;;;26.20;57.20;;;;;;5075096;28;20497;-77
2022/10/28 15:14:38;;;;;;;1.00;0.90;;;26.10;57.30;;;;;;5076148;28;20446;-77
2022/10/28 15:17:16;;;;;;;1.00;0.90;;;26.00;57.30;;;;;;5075437;28;20433;-77
2022/10/28 15:19:44;;;;;;;1.00;0.90;;;25.80;56.20;;;;;;5074870;28;20456;-77
2022/10/28 15:22:18;;;;;;;1.13;0.83;;;25.70;60.70;;;;;;5074620;28;20477;-77
2022/10/28 15:24:56;;;;;;;1.10;1.00;;;25.50;60.20;;;;;;5074463;28;20445;-77
2022/10/28 15:27:24;;;;;;;0.90;0.90;;;25.50;62.20;;;;;;5074607;28;20437;-77
2022/10/28 15:29:54;;;;;;;1.23;0.90;;;25.30;59.40;;;;;;5074070;28;20453;-76
2022/10/28 15:32:33;;;;;;;1.23;1.00;;;25.30;61.50;;;;;;5074787;28;20473;-77
2022/10/28 15:35:00;;;;;;;1.00;0.90;;;25.20;58.90;;;;;;5074626;28;20469;-77
2022/10/28 15:37:29;;;;;;;1.53;1.30;;;25.00;59.80;;;;;;5074742;28;20468;-77
2022/10/28 15:40:13;;;;;;;2.20;1.17;;;24.90;59.60;;;;;;5074755;28;20445;-76
2022/10/28 15:42:42;;;;;;;0.80;0.80;;;24.90;61.60;;;;;;5074411;28;20823;-77
2022/10/28 15:45:19;;;;;;;1.17;1.07;;;24.90;62.90;;;;;;5074561;28;20457;-77
2022/10/28 15:47:47;;;;;;;1.00;0.90;;;24.90;62.70;;;;;;5074617;28;20425;-76
2022/10/28 15:50:31;;;;;;;1.00;0.90;;;24.80;60.50;;;;;;5074284;28;20453;-77
2022/10/28 15:53:21;;;;;;;0.90;0.90;;;24.60;62.40;;;;;;5074207;28;20446;-76
2022/10/28 15:56:08;;;;;;;0.93;0.87;;;24.60;63.20;;;;;;5074329;28;21071;-76
2022/10/28 15:58:37;;;;;;;0.83;0.83;;;24.50;62.20;;;;;;5074650;28;20438;-77
2022/10/28 16:01:26;;;;;;;0.90;0.80;;;24.40;63.10;;;;;;5073682;28;20595;-76
2022/10/28 16:03:52;;;;;;;0.70;0.70;;;24.40;62.50;;;;;;5073983;28;20434;-75
2022/10/28 16:06:23;;;;;;;1.20;0.97;;;24.30;63.70;;;;;;5074053;28;20446;-77
2022/10/28 16:09:04;;;;;;;0.73;0.70;;;24.00;63.90;;;;;;5074653;28;20434;-77
2022/10/28 16:11:34;;;;;;;0.80;0.77;;;23.90;64.20;;;;;;5077680;28;20469;-77